sensor_id;sensor_type;location;lat;lon;timestamp;P1;durP1;ratioP1;P2;durP2;ratioP2
20970;SDS011;10644;48.834;10.088;2022-10-16T00:01:26;6.73;;;3.63;;
20970;SDS011;10644;48.834;10.088;2022-10-16T00:03:55;6.37;;;3.07;;
20970;SDS011;10644;48.834;10.088;2022-10-16T00:06:28;3.63;;;2.67;;
20970;SDS011;10644;48.834;10.088;2022-10-16T00:08:55;6.10;;;3.03;;
20970;SDS011;10644;48.834;10.088;2022-10-16T00:11:33;7.63;;;3.33;;
20970;SDS011;10644;48.834;10.088;2022-10-16T00:14:02;7.70;;;3.57;;
20970;SDS011;10644;48.834;10.088;2022-10-16T00:18:58;8.73;;;3.10;;
20970;SDS011;10644;48.834;10.088;2022-10-16T00:24:12;6.20;;;3.20;;
20970;SDS011;10644;48.834;10.088;2022-10-16T00:26:38;4.07;;;2.60;;
20970;SDS011;10644;48.834;10.088;2022-10-16T00:29:04;5.10;;;2.60;;
20970;SDS011;10644;48.834;10.088;2022-10-16T00:34:23;13.80;;;2.90;;
20970;SDS011;10644;48.834;10.088;2022-10-16T00:36:48;3.83;;;2.37;;
20970;SDS011;10644;48.834;10.088;2022-10-16T00:39:13;5.77;;;2.50;;
20970;SDS011;10644;48.834;10.088;2022-10-16T00:41:39;5.57;;;3.07;;
20970;SDS011;10644;48.834;10.088;2022-10-16T00:47:26;14.70;;;3.40;;
20970;SDS011;10644;48.834;10.088;2022-10-16T00:53:00;2.60;;;2.40;;
20970;SDS011;10644;48.834;10.088;2022-10-16T00:55:27;4.50;;;2.33;;
20970;SDS011;10644;48.834;10.088;2022-10-16T00:57:56;3.70;;;2.70;;
20970;SDS011;10644;48.834;10.088;2022-10-16T01:00:24;11.30;;;2.77;;
20970;SDS011;10644;48.834;10.088;2022-10-16T01:02:55;6.50;;;2.70;;
20970;SDS011;10644;48.834;10.088;2022-10-16T01:05:34;4.83;;;2.80;;
20970;SDS011;10644;48.834;10.088;2022-10-16T01:08:12;5.63;;;3.20;;
20970;SDS011;10644;48.834;10.088;2022-10-16T01:10:50;3.10;;;2.40;;
20970;SDS011;10644;48.834;10.088;2022-10-16T01:13:30;2.17;;;2.03;;
20970;SDS011;10644;48.834;10.088;2022-10-16T01:22:18;2.40;;;2.20;;
20970;SDS011;10644;48.834;10.088;2022-10-16T01:24:50;6.40;;;2.90;;
20970;SDS011;10644;48.834;10.088;2022-10-16T01:27:26;4.20;;;2.40;;
20970;SDS011;10644;48.834;10.088;2022-10-16T01:30:07;5.17;;;2.80;;
20970;SDS011;10644;48.834;10.088;2022-10-16T01:35:21;4.03;;;2.00;;
20970;SDS011;10644;48.834;10.088;2022-10-16T01:40:44;6.37;;;2.33;;
20970;SDS011;10644;48.834;10.088;2022-10-16T01:43:14;2.93;;;1.93;;
20970;SDS011;10644;48.834;10.088;2022-10-16T01:45:44;5.50;;;2.30;;
20970;SDS011;10644;48.834;10.088;2022-10-16T01:48:14;4.73;;;1.73;;
20970;SDS011;10644;48.834;10.088;2022-10-16T01:50:44;10.23;;;2.13;;
20970;SDS011;10644;48.834;10.088;2022-10-16T01:53:19;3.70;;;2.03;;
20970;SDS011;10644;48.834;10.088;2022-10-16T01:55:47;6.70;;;2.20;;
20970;SDS011;10644;48.834;10.088;2022-10-16T01:58:16;3.63;;;2.10;;
20970;SDS011;10644;48.834;10.088;2022-10-16T02:00:43;4.37;;;2.50;;
20970;SDS011;10644;48.834;10.088;2022-10-16T02:03:23;4.03;;;2.83;;
20970;SDS011;10644;48.834;10.088;2022-10-16T02:05:56;6.10;;;2.67;;
20970;SDS011;10644;48.834;10.088;2022-10-16T02:08:35;14.53;;;3.27;;
20970;SDS011;10644;48.834;10.088;2022-10-16T02:11:01;3.50;;;2.00;;
20970;SDS011;10644;48.834;10.088;2022-10-16T02:13:31;7.90;;;2.63;;
20970;SDS011;10644;48.834;10.088;2022-10-16T02:16:03;3.47;;;2.40;;
20970;SDS011;10644;48.834;10.088;2022-10-16T02:18:29;4.93;;;2.07;;
20970;SDS011;10644;48.834;10.088;2022-10-16T02:20:59;2.97;;;1.90;;
20970;SDS011;10644;48.834;10.088;2022-10-16T02:26:41;20.17;;;3.50;;
20970;SDS011;10644;48.834;10.088;2022-10-16T02:29:14;7.00;;;2.27;;
20970;SDS011;10644;48.834;10.088;2022-10-16T02:31:46;12.23;;;3.40;;
20970;SDS011;10644;48.834;10.088;2022-10-16T02:34:17;4.80;;;2.70;;
20970;SDS011;10644;48.834;10.088;2022-10-16T02:36:45;4.73;;;2.00;;
20970;SDS011;10644;48.834;10.088;2022-10-16T02:39:21;5.10;;;2.47;;
20970;SDS011;10644;48.834;10.088;2022-10-16T02:41:52;4.93;;;2.70;;
20970;SDS011;10644;48.834;10.088;2022-10-16T02:44:20;5.47;;;3.00;;
20970;SDS011;10644;48.834;10.088;2022-10-16T02:46:46;10.20;;;3.47;;
20970;SDS011;10644;48.834;10.088;2022-10-16T02:49:11;5.67;;;2.87;;
20970;SDS011;10644;48.834;10.088;2022-10-16T02:51:37;18.03;;;5.23;;
20970;SDS011;10644;48.834;10.088;2022-10-16T02:54:11;8.10;;;3.07;;
20970;SDS011;10644;48.834;10.088;2022-10-16T02:56:37;4.07;;;2.90;;
20970;SDS011;10644;48.834;10.088;2022-10-16T02:59:05;6.63;;;2.93;;
20970;SDS011;10644;48.834;10.088;2022-10-16T03:04:06;6.87;;;3.10;;
20970;SDS011;10644;48.834;10.088;2022-10-16T03:06:32;5.70;;;3.10;;
20970;SDS011;10644;48.834;10.088;2022-10-16T03:08:58;5.90;;;3.20;;
20970;SDS011;10644;48.834;10.088;2022-10-16T03:11:32;5.50;;;3.17;;
20970;SDS011;10644;48.834;10.088;2022-10-16T03:16:32;9.20;;;3.20;;
20970;SDS011;10644;48.834;10.088;2022-10-16T03:18:58;7.30;;;3.10;;
20970;SDS011;10644;48.834;10.088;2022-10-16T03:21:26;10.50;;;3.97;;
20970;SDS011;10644;48.834;10.088;2022-10-16T03:23:57;16.33;;;3.90;;
20970;SDS011;10644;48.834;10.088;2022-10-16T03:26:23;9.17;;;3.33;;
20970;SDS011;10644;48.834;10.088;2022-10-16T03:28:50;6.10;;;3.37;;
20970;SDS011;10644;48.834;10.088;2022-10-16T03:31:15;10.20;;;3.40;;
20970;SDS011;10644;48.834;10.088;2022-10-16T03:33:40;9.67;;;3.53;;
20970;SDS011;10644;48.834;10.088;2022-10-16T03:36:06;3.23;;;2.90;;
20970;SDS011;10644;48.834;10.088;2022-10-16T03:38:31;7.10;;;3.53;;
20970;SDS011;10644;48.834;10.088;2022-10-16T03:40:57;7.50;;;3.47;;
20970;SDS011;10644;48.834;10.088;2022-10-16T03:46:10;5.90;;;3.10;;
20970;SDS011;10644;48.834;10.088;2022-10-16T03:48:44;5.07;;;3.27;;
20970;SDS011;10644;48.834;10.088;2022-10-16T03:51:19;5.10;;;3.77;;
20970;SDS011;10644;48.834;10.088;2022-10-16T03:53:45;9.70;;;4.20;;
20970;SDS011;10644;48.834;10.088;2022-10-16T03:56:10;4.83;;;3.70;;
20970;SDS011;10644;48.834;10.088;2022-10-16T03:58:36;5.77;;;3.50;;
20970;SDS011;10644;48.834;10.088;2022-10-16T04:01:01;7.17;;;3.40;;
20970;SDS011;10644;48.834;10.088;2022-10-16T04:03:34;5.30;;;3.83;;
20970;SDS011;10644;48.834;10.088;2022-10-16T04:05:59;5.73;;;3.87;;
20970;SDS011;10644;48.834;10.088;2022-10-16T04:08:31;6.80;;;3.40;;
20970;SDS011;10644;48.834;10.088;2022-10-16T04:10:59;7.33;;;3.30;;
20970;SDS011;10644;48.834;10.088;2022-10-16T04:13:25;5.53;;;3.83;;
20970;SDS011;10644;48.834;10.088;2022-10-16T04:16:05;4.90;;;3.43;;
20970;SDS011;10644;48.834;10.088;2022-10-16T04:18:47;6.10;;;2.97;;
20970;SDS011;10644;48.834;10.088;2022-10-16T04:21:12;10.13;;;3.73;;
20970;SDS011;10644;48.834;10.088;2022-10-16T04:23:38;4.13;;;3.37;;
20970;SDS011;10644;48.834;10.088;2022-10-16T04:26:04;9.97;;;3.37;;
20970;SDS011;10644;48.834;10.088;2022-10-16T04:28:33;4.73;;;3.27;;
20970;SDS011;10644;48.834;10.088;2022-10-16T04:31:05;6.03;;;3.30;;
20970;SDS011;10644;48.834;10.088;2022-10-16T04:33:31;8.20;;;3.83;;
20970;SDS011;10644;48.834;10.088;2022-10-16T04:36:03;7.93;;;2.93;;
20970;SDS011;10644;48.834;10.088;2022-10-16T04:38:29;9.83;;;3.90;;
20970;SDS011;10644;48.834;10.088;2022-10-16T04:40:56;11.70;;;3.57;;
20970;SDS011;10644;48.834;10.088;2022-10-16T04:46:11;7.60;;;3.80;;
20970;SDS011;10644;48.834;10.088;2022-10-16T04:48:37;8.43;;;3.50;;
20970;SDS011;10644;48.834;10.088;2022-10-16T04:51:02;3.20;;;2.80;;
20970;SDS011;10644;48.834;10.088;2022-10-16T04:53:29;10.73;;;3.90;;
20970;SDS011;10644;48.834;10.088;2022-10-16T04:55:56;13.13;;;4.37;;
20970;SDS011;10644;48.834;10.088;2022-10-16T04:58:25;12.03;;;3.73;;
20970;SDS011;10644;48.834;10.088;2022-10-16T05:00:50;4.10;;;3.50;;
20970;SDS011;10644;48.834;10.088;2022-10-16T05:03:24;8.37;;;3.83;;
20970;SDS011;10644;48.834;10.088;2022-10-16T05:06:05;3.23;;;2.93;;
20970;SDS011;10644;48.834;10.088;2022-10-16T05:08:31;6.33;;;4.13;;
20970;SDS011;10644;48.834;10.088;2022-10-16T05:10:56;9.30;;;5.00;;
20970;SDS011;10644;48.834;10.088;2022-10-16T05:13:23;6.17;;;4.73;;
20970;SDS011;10644;48.834;10.088;2022-10-16T05:15:48;10.13;;;4.60;;
20970;SDS011;10644;48.834;10.088;2022-10-16T05:18:14;9.00;;;4.70;;
20970;SDS011;10644;48.834;10.088;2022-10-16T05:20:40;7.13;;;5.30;;
20970;SDS011;10644;48.834;10.088;2022-10-16T05:23:12;5.17;;;4.40;;
20970;SDS011;10644;48.834;10.088;2022-10-16T05:25:37;8.10;;;5.37;;
20970;SDS011;10644;48.834;10.088;2022-10-16T05:28:04;6.70;;;5.17;;
20970;SDS011;10644;48.834;10.088;2022-10-16T05:30:30;11.10;;;4.90;;
20970;SDS011;10644;48.834;10.088;2022-10-16T05:33:01;6.90;;;4.67;;
20970;SDS011;10644;48.834;10.088;2022-10-16T05:35:26;7.20;;;4.87;;
20970;SDS011;10644;48.834;10.088;2022-10-16T05:37:52;7.10;;;5.10;;
20970;SDS011;10644;48.834;10.088;2022-10-16T05:40:25;6.90;;;5.10;;
20970;SDS011;10644;48.834;10.088;2022-10-16T05:42:54;8.90;;;6.00;;
20970;SDS011;10644;48.834;10.088;2022-10-16T05:45:20;8.60;;;5.10;;
20970;SDS011;10644;48.834;10.088;2022-10-16T05:47:45;11.47;;;5.23;;
20970;SDS011;10644;48.834;10.088;2022-10-16T05:50:26;8.73;;;5.63;;
20970;SDS011;10644;48.834;10.088;2022-10-16T05:52:58;7.10;;;4.63;;
20970;SDS011;10644;48.834;10.088;2022-10-16T05:55:27;9.30;;;4.77;;
20970;SDS011;10644;48.834;10.088;2022-10-16T05:57:54;9.13;;;4.60;;
20970;SDS011;10644;48.834;10.088;2022-10-16T06:00:26;8.43;;;5.47;;
20970;SDS011;10644;48.834;10.088;2022-10-16T06:02:52;8.45;;;4.90;;
20970;SDS011;10644;48.834;10.088;2022-10-16T06:05:20;8.70;;;4.90;;
20970;SDS011;10644;48.834;10.088;2022-10-16T06:07:51;7.10;;;5.33;;
20970;SDS011;10644;48.834;10.088;2022-10-16T06:12:50;10.20;;;5.33;;
20970;SDS011;10644;48.834;10.088;2022-10-16T06:17:45;9.10;;;4.60;;
20970;SDS011;10644;48.834;10.088;2022-10-16T06:20:11;4.97;;;4.23;;
20970;SDS011;10644;48.834;10.088;2022-10-16T06:22:37;8.90;;;4.93;;
20970;SDS011;10644;48.834;10.088;2022-10-16T06:25:03;7.03;;;4.60;;
20970;SDS011;10644;48.834;10.088;2022-10-16T06:27:32;10.17;;;5.60;;
20970;SDS011;10644;48.834;10.088;2022-10-16T06:29:57;6.10;;;4.90;;
20970;SDS011;10644;48.834;10.088;2022-10-16T06:32:23;35.70;;;12.87;;
20970;SDS011;10644;48.834;10.088;2022-10-16T06:34:48;15.23;;;4.97;;
20970;SDS011;10644;48.834;10.088;2022-10-16T06:37:13;7.10;;;4.60;;
20970;SDS011;10644;48.834;10.088;2022-10-16T06:39:40;9.13;;;5.17;;
20970;SDS011;10644;48.834;10.088;2022-10-16T06:42:15;10.50;;;5.50;;
20970;SDS011;10644;48.834;10.088;2022-10-16T06:44:42;9.33;;;4.23;;
20970;SDS011;10644;48.834;10.088;2022-10-16T06:47:11;10.60;;;4.70;;
20970;SDS011;10644;48.834;10.088;2022-10-16T06:49:50;5.37;;;4.13;;
20970;SDS011;10644;48.834;10.088;2022-10-16T06:52:17;4.57;;;4.10;;
20970;SDS011;10644;48.834;10.088;2022-10-16T06:54:46;5.70;;;4.50;;
20970;SDS011;10644;48.834;10.088;2022-10-16T06:57:19;6.80;;;4.23;;
20970;SDS011;10644;48.834;10.088;2022-10-16T06:59:46;10.23;;;4.87;;
20970;SDS011;10644;48.834;10.088;2022-10-16T07:02:18;10.73;;;6.07;;
20970;SDS011;10644;48.834;10.088;2022-10-16T07:04:55;9.60;;;5.03;;
20970;SDS011;10644;48.834;10.088;2022-10-16T07:07:21;7.37;;;4.10;;
20970;SDS011;10644;48.834;10.088;2022-10-16T07:09:51;6.63;;;4.67;;
20970;SDS011;10644;48.834;10.088;2022-10-16T07:12:19;13.70;;;4.80;;
20970;SDS011;10644;48.834;10.088;2022-10-16T07:14:44;8.07;;;4.40;;
20970;SDS011;10644;48.834;10.088;2022-10-16T07:17:10;6.93;;;4.07;;
20970;SDS011;10644;48.834;10.088;2022-10-16T07:19:37;3.80;;;2.93;;
20970;SDS011;10644;48.834;10.088;2022-10-16T07:22:03;4.97;;;3.80;;
20970;SDS011;10644;48.834;10.088;2022-10-16T07:24:28;9.80;;;4.50;;
20970;SDS011;10644;48.834;10.088;2022-10-16T07:27:06;5.50;;;3.57;;
20970;SDS011;10644;48.834;10.088;2022-10-16T07:29:33;11.30;;;4.10;;
20970;SDS011;10644;48.834;10.088;2022-10-16T07:32:01;8.07;;;3.13;;
20970;SDS011;10644;48.834;10.088;2022-10-16T07:34:27;12.20;;;3.90;;
20970;SDS011;10644;48.834;10.088;2022-10-16T07:36:58;7.83;;;3.67;;
20970;SDS011;10644;48.834;10.088;2022-10-16T07:39:23;9.07;;;3.80;;
20970;SDS011;10644;48.834;10.088;2022-10-16T07:44:37;6.07;;;4.00;;
20970;SDS011;10644;48.834;10.088;2022-10-16T07:47:12;4.70;;;3.80;;
20970;SDS011;10644;48.834;10.088;2022-10-16T07:49:40;6.63;;;2.97;;
20970;SDS011;10644;48.834;10.088;2022-10-16T07:52:06;7.23;;;3.20;;
20970;SDS011;10644;48.834;10.088;2022-10-16T07:57:31;6.80;;;2.80;;
20970;SDS011;10644;48.834;10.088;2022-10-16T08:02:28;6.83;;;3.23;;
20970;SDS011;10644;48.834;10.088;2022-10-16T08:05:01;10.60;;;2.53;;
20970;SDS011;10644;48.834;10.088;2022-10-16T08:07:26;4.43;;;2.83;;
20970;SDS011;10644;48.834;10.088;2022-10-16T08:10:00;4.30;;;2.87;;
20970;SDS011;10644;48.834;10.088;2022-10-16T08:12:34;5.50;;;3.27;;
20970;SDS011;10644;48.834;10.088;2022-10-16T08:15:02;8.13;;;3.50;;
20970;SDS011;10644;48.834;10.088;2022-10-16T08:17:28;13.87;;;3.63;;
20970;SDS011;10644;48.834;10.088;2022-10-16T08:19:53;6.93;;;3.50;;
20970;SDS011;10644;48.834;10.088;2022-10-16T08:22:18;3.77;;;2.70;;
20970;SDS011;10644;48.834;10.088;2022-10-16T08:24:45;7.13;;;3.73;;
20970;SDS011;10644;48.834;10.088;2022-10-16T08:27:12;4.80;;;3.60;;
20970;SDS011;10644;48.834;10.088;2022-10-16T08:29:37;8.60;;;4.40;;
20970;SDS011;10644;48.834;10.088;2022-10-16T08:32:15;12.10;;;5.13;;
20970;SDS011;10644;48.834;10.088;2022-10-16T08:34:41;6.83;;;4.43;;
20970;SDS011;10644;48.834;10.088;2022-10-16T08:37:07;10.43;;;4.97;;
20970;SDS011;10644;48.834;10.088;2022-10-16T08:39:38;9.50;;;3.70;;
20970;SDS011;10644;48.834;10.088;2022-10-16T08:44:59;10.40;;;3.10;;
20970;SDS011;10644;48.834;10.088;2022-10-16T08:50:25;8.83;;;3.60;;
20970;SDS011;10644;48.834;10.088;2022-10-16T08:53:01;7.70;;;3.67;;
20970;SDS011;10644;48.834;10.088;2022-10-16T08:58:31;8.97;;;4.40;;
20970;SDS011;10644;48.834;10.088;2022-10-16T09:00:57;11.50;;;3.13;;
20970;SDS011;10644;48.834;10.088;2022-10-16T09:20:26;3.57;;;3.27;;
20970;SDS011;10644;48.834;10.088;2022-10-16T09:25:46;3.73;;;3.10;;
20970;SDS011;10644;48.834;10.088;2022-10-16T09:28:14;4.43;;;2.30;;
20970;SDS011;10644;48.834;10.088;2022-10-16T09:30:41;2.70;;;2.37;;
20970;SDS011;10644;48.834;10.088;2022-10-16T09:33:12;2.67;;;2.40;;
20970;SDS011;10644;48.834;10.088;2022-10-16T09:38:29;4.90;;;2.60;;
20970;SDS011;10644;48.834;10.088;2022-10-16T09:41:02;7.07;;;2.93;;
20970;SDS011;10644;48.834;10.088;2022-10-16T09:46:05;5.03;;;3.20;;
20970;SDS011;10644;48.834;10.088;2022-10-16T09:51:47;13.50;;;10.47;;
20970;SDS011;10644;48.834;10.088;2022-10-16T09:56:32;11.50;;;6.07;;
20970;SDS011;10644;48.834;10.088;2022-10-16T09:59:03;5.20;;;3.07;;
20970;SDS011;10644;48.834;10.088;2022-10-16T10:01:36;5.17;;;3.20;;
20970;SDS011;10644;48.834;10.088;2022-10-16T10:04:07;11.40;;;3.37;;
20970;SDS011;10644;48.834;10.088;2022-10-16T10:06:50;6.03;;;2.27;;
20970;SDS011;10644;48.834;10.088;2022-10-16T10:09:27;18.07;;;11.30;;
20970;SDS011;10644;48.834;10.088;2022-10-16T10:12:00;8.50;;;5.30;;
20970;SDS011;10644;48.834;10.088;2022-10-16T10:14:29;12.37;;;5.43;;
20970;SDS011;10644;48.834;10.088;2022-10-16T10:17:21;6.97;;;2.60;;
20970;SDS011;10644;48.834;10.088;2022-10-16T10:19:59;16.73;;;3.53;;
20970;SDS011;10644;48.834;10.088;2022-10-16T10:22:44;9.43;;;3.00;;
20970;SDS011;10644;48.834;10.088;2022-10-16T10:30:23;19.00;;;4.17;;
20970;SDS011;10644;48.834;10.088;2022-10-16T11:01:39;11.40;;;2.87;;
20970;SDS011;10644;48.834;10.088;2022-10-16T11:07:38;6.50;;;2.40;;
20970;SDS011;10644;48.834;10.088;2022-10-16T11:10:12;5.03;;;2.33;;
20970;SDS011;10644;48.834;10.088;2022-10-16T11:15:24;9.43;;;2.33;;
20970;SDS011;10644;48.834;10.088;2022-10-16T11:17:57;12.77;;;2.70;;
20970;SDS011;10644;48.834;10.088;2022-10-16T11:24:41;14.87;;;2.43;;
20970;SDS011;10644;48.834;10.088;2022-10-16T11:27:14;10.53;;;3.20;;
20970;SDS011;10644;48.834;10.088;2022-10-16T11:29:48;13.00;;;2.50;;
20970;SDS011;10644;48.834;10.088;2022-10-16T11:32:29;8.93;;;2.57;;
20970;SDS011;10644;48.834;10.088;2022-10-16T11:35:00;10.53;;;2.80;;
20970;SDS011;10644;48.834;10.088;2022-10-16T11:37:42;15.43;;;3.30;;
20970;SDS011;10644;48.834;10.088;2022-10-16T11:43:24;5.50;;;1.60;;
20970;SDS011;10644;48.834;10.088;2022-10-16T11:58:01;5.20;;;1.83;;
20970;SDS011;10644;48.834;10.088;2022-10-16T12:10:24;5.17;;;1.33;;
20970;SDS011;10644;48.834;10.088;2022-10-16T12:12:58;4.70;;;1.47;;
20970;SDS011;10644;48.834;10.088;2022-10-16T12:15:39;3.10;;;1.47;;
20970;SDS011;10644;48.834;10.088;2022-10-16T12:23:47;2.57;;;2.17;;
20970;SDS011;10644;48.834;10.088;2022-10-16T12:26:14;4.40;;;1.67;;
20970;SDS011;10644;48.834;10.088;2022-10-16T12:41:24;1.57;;;1.17;;
20970;SDS011;10644;48.834;10.088;2022-10-16T12:46:52;2.80;;;1.33;;
20970;SDS011;10644;48.834;10.088;2022-10-16T12:49:31;3.10;;;1.50;;
20970;SDS011;10644;48.834;10.088;2022-10-16T12:52:01;9.63;;;3.00;;
20970;SDS011;10644;48.834;10.088;2022-10-16T12:54:31;2.93;;;1.23;;
20970;SDS011;10644;48.834;10.088;2022-10-16T13:03:08;1.20;;;1.10;;
20970;SDS011;10644;48.834;10.088;2022-10-16T13:28:32;1.70;;;1.37;;
20970;SDS011;10644;48.834;10.088;2022-10-16T13:33:34;2.40;;;1.07;;
20970;SDS011;10644;48.834;10.088;2022-10-16T13:36:02;1.40;;;1.10;;
20970;SDS011;10644;48.834;10.088;2022-10-16T13:38:31;1.23;;;1.00;;
20970;SDS011;10644;48.834;10.088;2022-10-16T13:41:12;1.90;;;1.33;;
20970;SDS011;10644;48.834;10.088;2022-10-16T13:46:18;2.70;;;1.10;;
20970;SDS011;10644;48.834;10.088;2022-10-16T13:48:55;2.47;;;1.30;;
20970;SDS011;10644;48.834;10.088;2022-10-16T13:51:32;1.90;;;1.20;;
20970;SDS011;10644;48.834;10.088;2022-10-16T13:54:02;4.10;;;1.30;;
20970;SDS011;10644;48.834;10.088;2022-10-16T13:56:28;7.17;;;1.67;;
20970;SDS011;10644;48.834;10.088;2022-10-16T13:59:00;3.53;;;1.63;;
20970;SDS011;10644;48.834;10.088;2022-10-16T14:01:28;3.37;;;1.90;;
20970;SDS011;10644;48.834;10.088;2022-10-16T14:04:07;9.97;;;2.00;;
20970;SDS011;10644;48.834;10.088;2022-10-16T14:06:35;3.10;;;1.60;;
20970;SDS011;10644;48.834;10.088;2022-10-16T14:09:21;5.10;;;1.13;;
20970;SDS011;10644;48.834;10.088;2022-10-16T14:11:51;5.30;;;1.47;;
20970;SDS011;10644;48.834;10.088;2022-10-16T14:14:34;2.30;;;1.50;;
20970;SDS011;10644;48.834;10.088;2022-10-16T14:17:05;2.33;;;1.27;;
20970;SDS011;10644;48.834;10.088;2022-10-16T14:19:39;6.87;;;1.47;;
20970;SDS011;10644;48.834;10.088;2022-10-16T14:22:29;5.97;;;2.73;;
20970;SDS011;10644;48.834;10.088;2022-10-16T14:24:57;4.13;;;1.57;;
20970;SDS011;10644;48.834;10.088;2022-10-16T14:27:29;2.27;;;1.40;;
20970;SDS011;10644;48.834;10.088;2022-10-16T14:30:13;1.90;;;1.30;;
20970;SDS011;10644;48.834;10.088;2022-10-16T14:32:52;2.47;;;1.60;;
20970;SDS011;10644;48.834;10.088;2022-10-16T14:35:27;4.10;;;1.90;;
20970;SDS011;10644;48.834;10.088;2022-10-16T14:38:06;3.73;;;1.80;;
20970;SDS011;10644;48.834;10.088;2022-10-16T14:40:47;3.47;;;1.60;;
20970;SDS011;10644;48.834;10.088;2022-10-16T14:43:20;3.07;;;2.23;;
20970;SDS011;10644;48.834;10.088;2022-10-16T14:45:51;8.83;;;1.73;;
20970;SDS011;10644;48.834;10.088;2022-10-16T14:48:20;2.27;;;1.73;;
20970;SDS011;10644;48.834;10.088;2022-10-16T14:50:47;3.60;;;2.20;;
20970;SDS011;10644;48.834;10.088;2022-10-16T14:53:26;6.30;;;1.87;;
20970;SDS011;10644;48.834;10.088;2022-10-16T14:55:52;3.90;;;1.70;;
20970;SDS011;10644;48.834;10.088;2022-10-16T14:58:19;6.47;;;2.40;;
20970;SDS011;10644;48.834;10.088;2022-10-16T15:01:02;4.37;;;2.30;;
20970;SDS011;10644;48.834;10.088;2022-10-16T15:03:27;5.90;;;2.03;;
20970;SDS011;10644;48.834;10.088;2022-10-16T15:05:53;7.20;;;2.10;;
20970;SDS011;10644;48.834;10.088;2022-10-16T15:08:20;4.90;;;1.90;;
20970;SDS011;10644;48.834;10.088;2022-10-16T15:10:45;5.00;;;2.40;;
20970;SDS011;10644;48.834;10.088;2022-10-16T15:13:11;8.77;;;4.10;;
20970;SDS011;10644;48.834;10.088;2022-10-16T15:15:42;10.40;;;2.40;;
20970;SDS011;10644;48.834;10.088;2022-10-16T15:18:10;7.80;;;3.10;;
20970;SDS011;10644;48.834;10.088;2022-10-16T15:20:42;4.67;;;2.20;;
20970;SDS011;10644;48.834;10.088;2022-10-16T15:23:15;14.73;;;4.50;;
20970;SDS011;10644;48.834;10.088;2022-10-16T15:25:46;11.73;;;3.40;;
20970;SDS011;10644;48.834;10.088;2022-10-16T15:28:14;12.00;;;3.70;;
20970;SDS011;10644;48.834;10.088;2022-10-16T15:30:40;11.10;;;2.97;;
20970;SDS011;10644;48.834;10.088;2022-10-16T15:33:40;7.60;;;3.53;;
20970;SDS011;10644;48.834;10.088;2022-10-16T15:35:59;19.20;;;3.80;;
20970;SDS011;10644;48.834;10.088;2022-10-16T15:38:32;7.53;;;3.90;;
20970;SDS011;10644;48.834;10.088;2022-10-16T15:40:58;9.70;;;3.93;;
20970;SDS011;10644;48.834;10.088;2022-10-16T15:43:24;9.67;;;5.30;;
20970;SDS011;10644;48.834;10.088;2022-10-16T15:48:56;12.00;;;4.80;;
20970;SDS011;10644;48.834;10.088;2022-10-16T15:51:30;11.40;;;3.23;;
20970;SDS011;10644;48.834;10.088;2022-10-16T15:54:03;6.73;;;2.77;;
20970;SDS011;10644;48.834;10.088;2022-10-16T15:56:40;13.07;;;4.20;;
20970;SDS011;10644;48.834;10.088;2022-10-16T16:01:55;6.90;;;4.37;;
20970;SDS011;10644;48.834;10.088;2022-10-16T16:04:31;6.73;;;3.67;;
20970;SDS011;10644;48.834;10.088;2022-10-16T16:06:58;13.90;;;6.37;;
20970;SDS011;10644;48.834;10.088;2022-10-16T16:09:31;10.17;;;5.33;;
20970;SDS011;10644;48.834;10.088;2022-10-16T16:11:56;10.30;;;5.70;;
20970;SDS011;10644;48.834;10.088;2022-10-16T16:14:35;18.70;;;6.00;;
20970;SDS011;10644;48.834;10.088;2022-10-16T16:20:02;15.23;;;6.20;;
20970;SDS011;10644;48.834;10.088;2022-10-16T16:22:31;15.23;;;4.80;;
20970;SDS011;10644;48.834;10.088;2022-10-16T16:24:58;16.80;;;5.50;;
20970;SDS011;10644;48.834;10.088;2022-10-16T16:27:29;12.37;;;5.67;;
20970;SDS011;10644;48.834;10.088;2022-10-16T16:29:57;12.00;;;4.33;;
20970;SDS011;10644;48.834;10.088;2022-10-16T16:35:08;10.60;;;4.20;;
20970;SDS011;10644;48.834;10.088;2022-10-16T16:37:40;7.90;;;4.03;;
20970;SDS011;10644;48.834;10.088;2022-10-16T16:40:22;9.50;;;4.67;;
20970;SDS011;10644;48.834;10.088;2022-10-16T16:45:54;9.70;;;4.63;;
20970;SDS011;10644;48.834;10.088;2022-10-16T16:48:33;7.97;;;4.97;;
20970;SDS011;10644;48.834;10.088;2022-10-16T16:51:16;11.43;;;4.60;;
20970;SDS011;10644;48.834;10.088;2022-10-16T16:53:51;8.00;;;3.33;;
20970;SDS011;10644;48.834;10.088;2022-10-16T16:56:18;7.67;;;3.80;;
20970;SDS011;10644;48.834;10.088;2022-10-16T17:01:48;4.83;;;2.97;;
20970;SDS011;10644;48.834;10.088;2022-10-16T17:07:02;6.53;;;3.17;;
20970;SDS011;10644;48.834;10.088;2022-10-16T17:09:41;8.03;;;3.33;;
20970;SDS011;10644;48.834;10.088;2022-10-16T17:15:02;10.50;;;4.30;;
20970;SDS011;10644;48.834;10.088;2022-10-16T17:17:30;10.73;;;4.30;;
20970;SDS011;10644;48.834;10.088;2022-10-16T17:19:57;11.53;;;4.63;;
20970;SDS011;10644;48.834;10.088;2022-10-16T17:22:35;9.40;;;5.17;;
20970;SDS011;10644;48.834;10.088;2022-10-16T17:25:07;12.30;;;6.07;;
20970;SDS011;10644;48.834;10.088;2022-10-16T17:27:41;8.20;;;4.10;;
20970;SDS011;10644;48.834;10.088;2022-10-16T17:30:13;10.90;;;6.37;;
20970;SDS011;10644;48.834;10.088;2022-10-16T17:32:46;9.13;;;5.67;;
20970;SDS011;10644;48.834;10.088;2022-10-16T17:35:25;14.27;;;4.67;;
20970;SDS011;10644;48.834;10.088;2022-10-16T17:40:46;6.30;;;3.67;;
20970;SDS011;10644;48.834;10.088;2022-10-16T17:46:10;6.90;;;3.13;;
20970;SDS011;10644;48.834;10.088;2022-10-16T17:48:40;9.33;;;3.50;;
20970;SDS011;10644;48.834;10.088;2022-10-16T17:51:07;7.93;;;3.23;;
20970;SDS011;10644;48.834;10.088;2022-10-16T17:53:34;5.80;;;4.07;;
20970;SDS011;10644;48.834;10.088;2022-10-16T17:56:06;8.20;;;5.80;;
20970;SDS011;10644;48.834;10.088;2022-10-16T17:58:33;20.73;;;6.30;;
20970;SDS011;10644;48.834;10.088;2022-10-16T18:04:02;26.03;;;6.63;;
20970;SDS011;10644;48.834;10.088;2022-10-16T18:09:01;9.90;;;5.87;;
20970;SDS011;10644;48.834;10.088;2022-10-16T18:11:27;15.90;;;4.40;;
20970;SDS011;10644;48.834;10.088;2022-10-16T18:16:29;8.57;;;2.67;;
20970;SDS011;10644;48.834;10.088;2022-10-16T18:18:56;5.77;;;2.73;;
20970;SDS011;10644;48.834;10.088;2022-10-16T18:21:22;9.37;;;2.37;;
20970;SDS011;10644;48.834;10.088;2022-10-16T18:23:52;9.40;;;3.03;;
20970;SDS011;10644;48.834;10.088;2022-10-16T18:28:55;14.07;;;3.07;;
20970;SDS011;10644;48.834;10.088;2022-10-16T18:31:25;17.57;;;4.57;;
20970;SDS011;10644;48.834;10.088;2022-10-16T18:33:50;9.00;;;3.63;;
20970;SDS011;10644;48.834;10.088;2022-10-16T18:39:19;3.30;;;2.10;;
20970;SDS011;10644;48.834;10.088;2022-10-16T18:41:48;6.80;;;2.40;;
20970;SDS011;10644;48.834;10.088;2022-10-16T18:44:15;4.60;;;2.00;;
20970;SDS011;10644;48.834;10.088;2022-10-16T18:46:41;4.73;;;2.27;;
20970;SDS011;10644;48.834;10.088;2022-10-16T18:49:06;5.47;;;1.83;;
20970;SDS011;10644;48.834;10.088;2022-10-16T18:54:09;6.13;;;2.17;;
20970;SDS011;10644;48.834;10.088;2022-10-16T18:56:47;8.90;;;2.83;;
20970;SDS011;10644;48.834;10.088;2022-10-16T18:59:12;5.43;;;1.80;;
20970;SDS011;10644;48.834;10.088;2022-10-16T19:01:41;5.20;;;2.03;;
20970;SDS011;10644;48.834;10.088;2022-10-16T19:04:15;19.83;;;5.40;;
20970;SDS011;10644;48.834;10.088;2022-10-16T19:06:43;29.37;;;6.20;;
20970;SDS011;10644;48.834;10.088;2022-10-16T19:11:59;21.57;;;4.83;;
20970;SDS011;10644;48.834;10.088;2022-10-16T19:17:21;14.30;;;5.00;;